Time;durP1;ratioP1;P1;durP2;ratioP2;P2;SDS_P1;SDS_P2;PMS_P1;PMS_P2;Temp;Humidity;BMP_temperature;BMP_pressure;BME280_temperature;BME280_humidity;BME280_pressure;Samples;Min_cycle;Max_cycle;Signal;HPM_P1;HPM_P2
2022/04/30 00:00:58;;;;;;;10.45;6.30;;;1.50;1.00;;;2.14;88.77;100179.06;5039557;27;129284;-70
2022/04/30 00:03:28;;;;;;;13.18;6.45;;;1.50;1.00;;;2.10;88.72;100189.44;5025379;27;120163;-70
2022/04/30 00:05:58;;;;;;;13.05;6.40;;;1.40;1.00;;;2.05;89.52;100183.97;5025146;27;118918;-71
2022/04/30 00:08:28;;;;;;;12.65;7.05;;;1.40;1.00;;;2.04;89.18;100185.03;5039482;27;130182;-71
2022/04/30 00:10:56;;;;;;;14.32;6.85;;;1.40;1.00;;;2.03;89.58;100194.09;5040206;27;129464;-72
2022/04/30 00:13:25;;;;;;;12.57;7.07;;;1.30;1.00;;;1.95;90.44;100189.13;5041702;27;119308;-70
2022/04/30 00:15:53;;;;;;;15.68;7.60;;;1.40;1.00;;;1.91;90.74;100187.97;5039733;27;120548;-70
2022/04/30 00:18:22;;;;;;;11.57;6.38;;;1.40;1.00;;;1.94;90.12;100195.53;5038239;27;131015;-70
2022/04/30 00:20:53;;;;;;;15.27;7.03;;;1.40;1.00;;;1.79;91.44;100188.81;5039416;27;129633;-72
2022/04/30 00:23:23;;;;;;;13.10;7.90;;;1.50;1.00;;;1.84;90.99;100184.59;5039962;27;120724;-71
2022/04/30 00:25:54;;;;;;;14.15;6.90;;;1.40;1.00;;;1.88;91.50;100181.22;5039605;27;119781;-71
2022/04/30 00:28:26;;;;;;;20.55;9.65;;;1.40;1.00;;;1.91;90.46;100186.09;5039594;27;130636;-70
2022/04/30 00:30:55;;;;;;;17.92;7.85;;;1.30;1.00;;;1.91;89.42;100188.78;5007862;27;128235;-70
2022/04/30 00:33:24;;;;;;;13.23;8.55;;;1.10;1.00;;;1.86;90.03;100179.84;5021314;27;119904;-70
2022/04/30 00:35:52;;;;;;;12.25;6.85;;;1.00;1.00;;;1.84;89.48;100184.59;5024914;27;118488;-72
2022/04/30 00:38:22;;;;;;;15.63;6.95;;;1.00;1.00;;;1.75;90.08;100195.69;5040627;27;129401;-71
2022/04/30 00:40:51;;;;;;;12.52;6.57;;;1.00;1.00;;;1.63;90.73;100189.53;5038968;27;129852;-70
2022/04/30 00:43:20;;;;;;;11.98;6.68;;;1.00;1.00;;;1.66;90.28;100183.72;5038098;27;121910;-71
2022/04/30 00:45:48;;;;;;;14.38;7.05;;;1.00;1.00;;;1.60;89.84;100184.66;5022083;27;122243;-72
2022/04/30 00:48:17;;;;;;;13.73;6.90;;;0.90;1.00;;;1.49;90.65;100188.16;5038870;27;130438;-72
2022/04/30 00:50:46;;;;;;;12.93;7.03;;;0.80;1.00;;;1.42;90.62;100183.75;5038816;27;130735;-71
2022/04/30 00:53:19;;;;;;;15.07;8.23;;;0.80;1.00;;;1.42;90.43;100186.44;5039094;27;120242;-70
2022/04/30 00:55:51;;;;;;;16.90;8.20;;;0.70;1.00;;;1.41;89.87;100186.66;5038861;27;119558;-71
2022/04/30 00:58:23;;;;;;;21.05;9.55;;;0.60;1.00;;;1.33;90.23;100184.34;5037755;27;130564;-71
2022/04/30 01:00:52;;;;;;;20.60;9.40;;;0.50;1.00;;;1.20;91.18;100190.72;5023924;27;129185;-71
2022/04/30 01:03:45;;;;;;;16.77;9.80;;;0.50;1.00;;;1.19;91.59;100189.13;5006929;27;118900;-72
2022/04/30 01:06:14;;;;;;;18.92;9.07;;;0.50;1.00;;;1.21;90.76;100187.81;5040624;27;119307;-72
2022/04/30 01:08:43;;;;;;;16.58;8.90;;;0.40;1.00;;;1.20;90.69;100191.56;5019377;27;130035;-72
2022/04/30 01:11:12;;;;;;;17.95;9.82;;;0.30;1.00;;;1.16;91.28;100189.56;5038486;27;129346;-71
2022/04/30 01:13:41;;;;;;;16.65;9.10;;;0.40;1.00;;;1.15;90.83;100182.59;5020518;27;120080;-71
2022/04/30 01:16:12;;;;;;;18.20;10.63;;;0.30;1.00;;;1.12;90.48;100196.44;5037082;27;119441;-72
2022/04/30 01:18:40;;;;;;;21.92;13.32;;;0.20;1.00;;;1.07;90.23;100181.88;5038371;27;130034;-71
2022/04/30 01:21:13;;;;;;;22.80;12.77;;;0.10;1.00;;;1.04;90.38;100187.72;5038263;27;129858;-71
2022/04/30 01:23:47;;;;;;;16.25;9.45;;;0.10;1.00;;;0.87;91.85;100187.59;5023693;27;119380;-72
2022/04/30 01:26:17;;;;;;;22.75;10.43;;;0.10;1.00;;;0.86;92.49;100187.81;5039022;27;120816;-72
2022/04/30 01:28:48;;;;;;;21.52;9.98;;;0.20;1.00;;;0.93;92.30;100188.50;5036862;27;130366;-71
2022/04/30 01:39:36;;;;;;;22.13;11.38;;;0.30;1.00;;;1.23;92.14;100198.28;5040396;27;129590;-70
2022/04/30 01:42:11;;;;;;;17.40;10.18;;;0.40;1.00;;;1.31;91.97;100197.97;5022483;27;128355;-70
2022/04/30 01:44:42;;;;;;;19.13;10.57;;;0.50;1.00;;;1.31;92.35;100197.97;5007195;27;118634;-72
2022/04/30 01:47:11;;;;;;;19.42;11.27;;;0.60;1.00;;;1.33;92.03;100190.50;5041844;27;119431;-72
2022/04/30 01:49:39;;;;;;;17.77;9.27;;;0.60;1.00;;;1.36;92.19;100194.59;5039321;27;130426;-73
2022/04/30 01:52:09;;;;;;;16.65;9.73;;;0.70;1.00;;;1.43;91.75;100196.09;5040165;27;129170;-71
2022/04/30 01:54:39;;;;;;;19.00;9.85;;;0.70;1.00;;;1.46;91.80;100193.97;5023472;27;118867;-71
2022/04/30 01:57:07;;;;;;;15.55;9.77;;;0.60;1.00;;;1.44;91.39;100192.34;5038225;27;120004;-71
2022/04/30 01:59:36;;;;;;;16.67;9.25;;;0.60;1.00;;;1.40;91.37;100188.53;5021938;27;129601;-70
2022/04/30 02:02:07;;;;;;;15.52;8.95;;;0.50;1.00;;;1.31;92.05;100186.41;5037717;27;129698;-72
2022/04/30 02:04:36;;;;;;;16.48;10.05;;;0.50;1.00;;;1.28;91.93;100193.06;5038181;27;120043;-73
2022/04/30 02:07:06;;;;;;;18.17;10.02;;;0.40;1.00;;;1.25;92.17;100188.19;5037774;27;119922;-72
2022/04/30 02:09:37;;;;;;;20.45;9.18;;;0.40;1.00;;;1.18;92.11;100188.28;5037684;27;130168;-72
2022/04/30 02:12:09;;;;;;;20.50;9.63;;;0.30;1.00;;;1.10;91.95;100185.16;5037839;27;129937;-72
2022/04/30 02:14:40;;;;;;;18.55;9.27;;;0.20;1.00;;;1.05;92.12;100183.19;5038005;27;120070;-72
2022/04/30 02:17:11;;;;;;;17.23;9.45;;;0.20;1.00;;;0.93;92.53;100188.50;5038260;27;119478;-70
2022/04/30 02:22:30;;;;;;;16.65;9.05;;;0.10;1.00;;;0.85;92.17;100188.84;5037492;27;129062;-71
2022/04/30 02:24:59;;;;;;;20.05;9.25;;;-0.10;1.00;;;0.84;91.55;100188.03;5036637;27;121967;-72
2022/04/30 02:27:30;;;;;;;14.10;8.50;;;-0.20;1.00;;;0.82;91.33;100189.31;5022867;27;121865;-71
2022/04/30 02:29:59;;;;;;;16.30;8.80;;;-0.30;1.00;;;0.79;91.12;100181.75;5037930;27;130282;-72
2022/04/30 02:32:28;;;;;;;15.73;8.82;;;-0.30;1.00;;;0.77;90.93;100186.53;5022411;27;128943;-71
2022/04/30 02:34:56;;;;;;;23.75;12.10;;;-0.40;1.00;;;0.72;91.63;100189.88;5005780;27;118903;-72
2022/04/30 02:37:24;;;;;;;17.30;9.82;;;-0.40;1.00;;;0.64;92.76;100184.84;5037605;27;119595;-72
2022/04/30 02:39:53;;;;;;;17.77;9.98;;;-0.30;1.00;;;0.60;93.11;100192.50;5022143;27;130431;-71
2022/04/30 02:42:21;;;;;;;16.92;8.93;;;-0.20;1.00;;;0.46;94.13;100197.22;5019566;27;129983;-72
2022/04/30 02:44:52;;;;;;;15.30;8.63;;;-0.20;1.00;;;0.47;94.01;100192.72;5037675;27;120783;-71
2022/04/30 02:47:21;;;;;;;15.40;9.13;;;-0.20;1.00;;;0.46;93.98;100196.44;5020500;28;122880;-71
2022/04/30 02:49:50;;;;;;;21.58;10.15;;;-0.20;1.00;;;0.48;93.77;100195.16;5016340;28;130592;-70
2022/04/30 02:52:19;;;;;;;15.25;8.77;;;-0.30;1.00;;;0.50;93.61;100192.28;5017009;28;129404;-71
2022/04/30 02:54:48;;;;;;;16.77;9.40;;;-0.30;1.00;;;0.52;93.69;100200.84;5017129;28;119572;-70
2022/04/30 02:57:17;;;;;;;15.32;9.27;;;-0.30;1.00;;;0.62;93.26;100201.09;5019175;28;118433;-71
2022/04/30 02:59:53;;;;;;;22.17;12.77;;;-0.30;1.00;;;0.71;93.20;100197.06;5001880;28;129951;-69
2022/04/30 03:02:43;;;;;;;16.27;9.15;;;-0.20;1.00;;;0.75;93.54;100201.94;5019582;28;129096;-69
2022/04/30 03:05:12;;;;;;;16.88;9.93;;;-0.10;1.00;;;0.92;93.37;100199.44;5017183;28;120220;-70
2022/04/30 03:07:40;;;;;;;18.00;9.50;;;0.00;1.00;;;1.04;92.60;100198.41;5019532;28;118851;-71
2022/04/30 03:10:10;;;;;;;14.00;8.02;;;0.00;1.00;;;1.19;91.89;100199.81;5016787;28;130907;-72
2022/04/30 03:12:38;;;;;;;16.02;8.45;;;0.10;1.00;;;1.35;91.93;100201.78;5018592;28;128289;-70
2022/04/30 03:15:09;;;;;;;15.85;8.45;;;0.30;1.00;;;1.56;91.11;100202.25;5017463;28;122991;-70
2022/04/30 03:23:12;;;;;;;14.20;7.97;;;0.40;1.00;;;1.77;88.60;100206.16;5005093;28;129377;-71
2022/04/30 03:25:40;;;;;;;11.93;7.63;;;0.40;1.00;;;1.86;88.57;100207.41;5020341;28;119875;-71
2022/04/30 03:28:09;;;;;;;15.48;8.20;;;0.40;1.00;;;1.97;87.88;100200.41;5020373;28;119615;-72
2022/04/30 03:30:37;;;;;;;17.73;8.07;;;0.40;1.00;;;2.05;87.77;100208.06;5020058;28;130307;-72
2022/04/30 03:33:09;;;;;;;15.15;8.90;;;0.50;1.00;;;2.09;87.86;100203.88;5005486;28;130076;-72
2022/04/30 03:35:42;;;;;;;20.02;9.57;;;0.60;1.00;;;2.09;87.61;100214.56;5005578;28;118814;-71
2022/04/30 03:38:14;;;;;;;17.13;8.98;;;0.70;1.00;;;2.03;87.89;100210.16;5020192;28;119431;-73
2022/04/30 03:40:42;;;;;;;16.85;8.63;;;0.90;1.00;;;2.05;87.82;100209.94;5003539;28;129663;-72
2022/04/30 03:43:10;;;;;;;15.07;8.02;;;1.00;1.00;;;2.19;87.39;100213.16;5019738;28;130104;-72
2022/04/30 03:45:41;;;;;;;16.00;8.55;;;1.00;1.00;;;2.33;86.89;100215.28;5026674;27;121809;-73
2022/04/30 03:48:09;;;;;;;16.48;8.80;;;1.10;1.00;;;2.50;86.82;100215.34;5040098;27;119506;-72
2022/04/30 03:50:38;;;;;;;17.73;8.65;;;1.20;1.00;;;2.69;86.23;100217.81;5039949;27;130334;-72
2022/04/30 03:53:09;;;;;;;15.77;8.65;;;1.20;1.00;;;2.76;85.67;100213.13;5044235;27;102765;-72
2022/04/30 03:55:38;;;;;;;15.98;9.30;;;1.30;1.00;;;2.78;86.45;100213.69;5040185;27;119619;-71
2022/04/30 03:58:07;;;;;;;21.13;11.77;;;1.50;1.00;;;2.96;85.84;100219.88;5025507;27;119026;-71
2022/04/30 04:00:35;;;;;;;19.27;10.48;;;1.60;1.00;;;3.08;86.26;100212.56;5039851;27;130391;-71
2022/04/30 04:03:04;;;;;;;14.68;8.27;;;1.70;1.00;;;3.19;85.79;100214.34;5039773;27;129765;-72
2022/04/30 04:05:33;;;;;;;15.65;9.07;;;1.80;1.00;;;3.30;85.81;100217.19;5023827;27;122280;-71
2022/04/30 04:08:01;;;;;;;17.63;9.13;;;2.00;1.00;;;3.47;85.57;100226.00;5039832;27;121773;-70
2022/04/30 04:10:31;;;;;;;15.35;8.70;;;2.10;1.00;;;3.71;85.01;100226.63;5041490;27;129884;-70
2022/04/30 04:18:29;;;;;;;14.98;9.75;;;2.50;1.00;;;4.04;84.26;100216.03;5040418;27;119543;-71
2022/04/30 04:20:58;;;;;;;15.35;8.98;;;2.60;1.00;;;4.12;84.91;100218.28;5039311;27;129885;-71
2022/04/30 04:23:26;;;;;;;15.45;9.70;;;2.80;1.00;;;4.39;83.53;100212.13;5039788;27;129822;-72
2022/04/30 04:26:01;;;;;;;13.23;8.15;;;2.90;1.00;;;4.55;82.66;100215.78;5039661;27;119716;-70
2022/04/30 04:28:30;;;;;;;15.73;8.43;;;3.00;1.00;;;4.77;81.93;100208.47;5021817;27;119108;-73
2022/04/30 04:30:59;;;;;;;13.65;7.90;;;3.10;1.00;;;4.94;81.14;100219.09;5037763;27;130256;-70
2022/04/30 04:33:27;;;;;;;11.80;7.35;;;3.20;1.00;;;4.97;79.59;100218.59;5019891;27;129375;-71
2022/04/30 04:35:55;;;;;;;10.05;5.78;;;3.40;1.00;;;5.18;76.14;100213.38;5023970;27;119219;-71
2022/04/30 04:38:24;;;;;;;11.70;5.72;;;3.50;1.00;;;5.18;72.36;100219.56;5039095;27;119744;-70
2022/04/30 04:40:53;;;;;;;11.35;6.20;;;3.50;1.00;;;5.28;70.87;100223.38;5023421;27;129506;-71
2022/04/30 04:43:22;;;;;;;10.65;5.93;;;3.70;1.00;;;5.54;69.37;100211.72;5023999;27;129626;-71
2022/04/30 04:45:51;;;;;;;10.18;5.60;;;3.90;1.00;;;5.52;67.51;100213.06;5040011;27;119881;-71
2022/04/30 04:48:20;;;;;;;10.05;5.25;;;4.00;1.00;;;5.75;66.89;100223.41;5039236;27;119580;-72
2022/04/30 04:50:49;;;;;;;10.25;5.30;;;4.10;1.00;;;5.95;65.62;100221.88;5020253;27;130192;-72
2022/04/30 04:53:18;;;;;;;10.80;5.22;;;4.20;1.00;;;5.95;64.83;100221.88;5032128;27;129664;-71
2022/04/30 04:55:46;;;;;;;11.35;4.93;;;4.30;1.00;;;6.04;62.99;100224.91;5023758;27;123422;-70
2022/04/30 04:58:15;;;;;;;11.13;4.90;;;4.50;1.00;;;6.24;62.07;100225.00;5018519;28;122201;-71
2022/04/30 05:00:44;;;;;;;8.18;4.50;;;4.60;1.00;;;6.35;59.46;100225.84;5018059;28;130883;-69
2022/04/30 05:03:13;;;;;;;7.95;3.80;;;4.80;1.00;;;6.33;57.88;100230.69;5018218;28;129555;-72
2022/04/30 05:05:41;;;;;;;6.45;3.90;;;5.00;1.00;;;6.19;58.02;100221.47;5003534;28;118392;-73
2022/04/30 05:08:10;;;;;;;7.82;3.53;;;5.10;1.00;;;6.54;56.61;100228.03;5018830;28;120310;-70
2022/04/30 05:10:38;;;;;;;7.55;2.90;;;5.20;1.00;;;6.67;54.35;100227.53;5018185;28;130688;-71
2022/04/30 05:13:07;;;;;;;5.72;2.97;;;5.30;1.00;;;6.81;53.09;100223.22;5000457;28;130627;-72
2022/04/30 05:15:36;;;;;;;6.85;2.42;;;5.50;1.00;;;6.97;51.09;100223.25;5003616;28;119599;-70
2022/04/30 05:18:07;;;;;;;6.78;2.80;;;5.60;1.00;;;7.17;50.29;100225.94;5018410;28;119556;-71
2022/04/30 05:20:36;;;;;;;6.53;2.70;;;5.80;1.00;;;7.29;50.15;100228.38;5002201;28;130249;-69
2022/04/30 05:23:05;;;;;;;5.05;2.80;;;5.90;1.00;;;7.28;51.48;100217.84;5002895;28;129786;-69
2022/04/30 05:25:33;;;;;;;6.05;2.83;;;6.10;1.00;;;7.42;51.11;100232.41;5034370;27;119423;-71
2022/04/30 05:28:02;;;;;;;6.78;3.35;;;6.10;1.00;;;7.72;50.37;100225.31;5038601;27;119621;-71
2022/04/30 05:30:30;;;;;;;7.93;3.33;;;6.20;1.00;;;7.92;49.80;100230.63;5037519;27;130187;-69
2022/04/30 05:32:59;;;;;;;8.48;3.22;;;6.40;1.00;;;8.17;49.70;100223.50;5038206;27;129456;-70
2022/04/30 05:35:29;;;;;;;7.20;3.40;;;6.50;1.00;;;8.25;48.10;100225.63;5038360;27;120019;-71
2022/04/30 05:37:58;;;;;;;8.35;2.97;;;6.60;1.00;;;8.55;46.67;100221.16;5038487;27;120655;-71
2022/04/30 05:40:26;;;;;;;6.18;3.20;;;6.70;1.00;;;8.68;46.58;100221.63;5022843;27;130320;-71
2022/04/30 05:42:55;;;;;;;7.00;3.22;;;6.90;1.00;;;8.99;46.20;100225.75;5022714;27;129702;-71
2022/04/30 05:45:24;;;;;;;7.78;4.13;;;7.00;1.00;;;9.21;46.27;100221.78;5033127;27;122443;-71
2022/04/30 05:47:52;;;;;;;6.32;3.30;;;7.20;1.00;;;9.38;44.49;100215.09;5020649;28;121513;-71
2022/04/30 05:50:21;;;;;;;6.60;3.20;;;7.40;1.00;;;9.49;44.08;100211.19;5017995;28;130931;-71
2022/04/30 05:52:50;;;;;;;8.70;3.10;;;7.60;1.00;;;9.36;41.90;100207.28;5017480;28;129743;-72
2022/04/30 05:55:19;;;;;;;7.00;3.28;;;7.70;1.00;;;9.49;41.83;100203.91;5017929;28;119997;-71
2022/04/30 05:57:47;;;;;;;7.43;3.13;;;7.90;1.00;;;9.82;40.95;100206.00;5018115;28;119743;-73
2022/04/30 06:00:17;;;;;;;6.10;3.00;;;8.10;1.00;;;9.49;40.46;100205.78;5017502;28;130196;-69
2022/04/30 06:02:47;;;;;;;6.78;2.85;;;8.10;1.00;;;9.87;40.54;100208.63;5002965;28;128770;-67
2022/04/30 06:05:16;;;;;;;4.47;2.60;;;8.30;1.00;;;10.38;41.14;100202.59;5002599;28;119276;-70
2022/04/30 06:07:44;;;;;;;6.45;2.70;;;8.50;1.00;;;10.73;40.24;100199.63;5017908;28;120020;-70
2022/04/30 06:10:14;;;;;;;2.92;1.80;;;8.70;1.00;;;10.43;35.76;100205.22;5001797;28;130098;-72
2022/04/30 06:12:43;;;;;;;4.25;1.80;;;8.70;1.00;;;10.83;35.80;100204.09;5012157;28;129804;-73
2022/04/30 06:15:11;;;;;;;5.28;1.98;;;8.80;1.00;;;10.49;36.33;100197.81;5005464;28;122497;-72
2022/04/30 06:17:40;;;;;;;15.32;6.70;;;8.90;1.00;;;10.97;35.87;100202.25;5012405;28;120051;-68
2022/04/30 06:20:11;;;;;;;11.45;4.90;;;9.10;1.00;;;11.37;34.69;100202.63;5008382;28;130688;-71
2022/04/30 06:22:40;;;;;;;9.32;3.88;;;9.20;1.00;;;11.59;32.21;100198.44;5014744;28;129906;-70
2022/04/30 06:25:10;;;;;;;9.18;4.03;;;9.30;1.00;;;11.65;32.41;100198.03;4998377;28;119744;-70
2022/04/30 06:27:41;;;;;;;6.63;3.13;;;9.30;1.00;;;11.85;33.72;100207.69;5015716;28;119457;-69
2022/04/30 06:30:11;;;;;;;5.80;2.22;;;9.50;1.00;;;11.87;32.58;100194.63;4998317;28;129825;-71
2022/04/30 06:32:40;;;;;;;5.10;2.38;;;9.60;1.00;;;11.97;33.98;100198.28;5005765;28;129350;-69
2022/04/30 06:35:10;;;;;;;4.32;2.10;;;9.60;1.00;;;12.00;32.36;100197.69;5012920;28;122559;-70
2022/04/30 06:37:38;;;;;;;6.18;2.50;;;9.60;1.00;;;11.95;31.68;100195.88;5006378;28;122723;-70
2022/04/30 06:40:09;;;;;;;6.93;2.22;;;9.60;1.00;;;12.09;32.28;100205.91;4995612;28;130510;-69
2022/04/30 06:42:44;;;;;;;3.95;1.85;;;9.70;1.00;;;12.21;31.16;100198.81;5008980;28;129192;-70
2022/04/30 06:45:14;;;;;;;4.47;1.63;;;9.80;1.00;;;12.38;30.80;100192.75;5009282;28;119688;-73
2022/04/30 06:47:42;;;;;;;3.42;1.80;;;10.00;1.00;;;12.57;31.86;100198.06;5016323;28;119338;-72
2022/04/30 06:50:12;;;;;;;3.40;1.63;;;10.10;1.00;;;12.75;31.90;100196.25;4999327;28;129804;-71
2022/04/30 06:58:11;;;;;;;5.20;1.70;;;10.30;1.00;;;12.69;29.77;100192.03;5006661;28;119876;-71
2022/04/30 07:03:29;;;;;;;5.20;2.22;;;10.20;1.00;;;12.66;30.24;100197.31;5019390;28;129894;-71
2022/04/30 07:06:03;;;;;;;4.55;2.10;;;10.40;1.00;;;12.70;30.19;100199.13;5020330;28;119745;-72
2022/04/30 07:08:33;;;;;;;4.68;1.73;;;10.20;1.00;;;12.67;29.46;100193.47;5005763;28;118893;-73
2022/04/30 07:11:03;;;;;;;3.55;1.35;;;10.20;1.00;;;12.72;28.60;100193.34;5004364;28;132036;-72
2022/04/30 07:13:34;;;;;;;3.92;1.30;;;10.20;1.00;;;12.61;28.82;100197.44;5000679;28;129426;-69
2022/04/30 07:16:04;;;;;;;3.95;1.73;;;10.20;1.00;;;11.98;29.27;100194.44;4999266;28;120408;-71
2022/04/30 07:18:32;;;;;;;2.95;1.63;;;10.30;1.00;;;12.07;29.42;100195.34;5002761;28;119728;-71
2022/04/30 07:21:00;;;;;;;3.13;1.50;;;10.40;1.00;;;12.65;29.73;100192.97;5001002;28;130359;-71
2022/04/30 07:23:30;;;;;;;2.47;1.33;;;10.50;1.00;;;12.87;29.01;100190.28;4999275;28;129571;-68
2022/04/30 07:25:58;;;;;;;3.63;1.80;;;10.60;1.00;;;12.86;28.38;100191.38;5017771;28;121818;-71
2022/04/30 07:28:30;;;;;;;2.75;1.70;;;10.40;1.00;;;13.01;28.52;100187.47;5021162;28;121805;-70
2022/04/30 07:31:00;;;;;;;3.90;1.80;;;10.60;1.00;;;12.57;28.90;100189.88;4988676;28;130588;-70
2022/04/30 07:33:28;;;;;;;3.60;1.45;;;10.60;1.00;;;12.09;30.56;100190.41;5018377;28;129641;-69
2022/04/30 07:35:57;;;;;;;3.30;1.50;;;10.60;1.00;;;12.20;30.15;100186.34;5001485;28;120060;-72
2022/04/30 07:38:26;;;;;;;3.15;1.40;;;10.70;1.00;;;11.56;31.08;100182.72;5004526;28;119054;-71
2022/04/30 07:40:55;;;;;;;5.82;1.90;;;10.50;1.00;;;12.08;30.79;100188.78;5019113;28;131526;-69
2022/04/30 07:43:23;;;;;;;2.55;1.52;;;10.80;1.00;;;11.55;30.67;100186.56;5018630;28;129451;-71
2022/04/30 07:45:51;;;;;;;3.72;1.40;;;10.60;1.00;;;12.09;30.81;100184.97;5021761;27;120607;-72
2022/04/30 07:48:22;;;;;;;4.25;1.73;;;10.90;1.00;;;12.84;29.87;100182.72;5019853;28;120207;-70
2022/04/30 07:50:52;;;;;;;3.50;1.45;;;11.10;1.00;;;13.40;28.55;100175.06;5017819;28;129727;-70
2022/04/30 07:53:20;;;;;;;4.32;1.50;;;11.10;1.00;;;13.87;27.91;100177.31;5018648;28;131449;-70
2022/04/30 07:55:49;;;;;;;2.90;1.58;;;11.40;1.00;;;14.20;29.02;100176.88;5019756;28;119751;-71
2022/04/30 07:58:17;;;;;;;2.15;1.40;;;11.80;1.00;;;14.60;28.29;100174.06;5020145;28;119553;-71
2022/04/30 08:00:46;;;;;;;3.58;1.65;;;12.10;1.00;;;14.54;27.36;100165.19;5019599;28;130404;-73
2022/04/30 08:03:14;;;;;;;2.95;1.60;;;11.90;1.00;;;13.97;28.55;100179.72;5018086;28;130420;-71
2022/04/30 08:05:44;;;;;;;3.97;1.63;;;11.50;1.00;;;13.95;28.41;100171.06;5013270;28;120350;-70
2022/04/30 08:08:12;;;;;;;3.97;2.05;;;11.40;1.00;;;13.61;29.89;100166.31;5018069;28;119569;-71
2022/04/30 08:10:41;;;;;;;3.83;1.42;;;11.50;1.00;;;12.95;29.67;100172.38;5010151;28;130059;-68
2022/04/30 08:13:09;;;;;;;5.97;1.40;;;11.30;1.00;;;12.32;31.07;100176.84;4998558;28;129709;-69
2022/04/30 08:15:43;;;;;;;3.28;1.60;;;11.20;1.00;;;11.45;31.59;100172.06;4981600;28;120724;-70
2022/04/30 08:18:11;;;;;;;4.18;1.65;;;10.80;1.00;;;12.02;30.36;100170.97;4999228;28;122390;-71
2022/04/30 08:20:40;;;;;;;2.78;1.65;;;10.70;1.00;;;12.69;30.30;100164.03;4983522;28;131214;-70
2022/04/30 08:23:10;;;;;;;4.65;1.75;;;11.10;1.00;;;12.53;29.98;100167.09;4998588;28;130174;-72
2022/04/30 08:25:40;;;;;;;3.55;1.50;;;11.20;1.00;;;12.84;29.45;100163.66;5015555;28;119954;-71
2022/04/30 08:28:08;;;;;;;3.83;1.77;;;11.50;1.00;;;13.19;29.00;100172.03;5020375;28;119265;-70
2022/04/30 08:30:36;;;;;;;2.88;1.40;;;11.50;1.00;;;13.68;27.80;100160.38;4991521;28;130147;-70
2022/04/30 08:33:06;;;;;;;4.25;1.50;;;11.50;1.00;;;13.88;28.27;100159.78;5002592;28;129216;-72
2022/04/30 08:35:34;;;;;;;3.15;1.60;;;11.70;1.00;;;13.78;28.64;100160.91;4998741;28;118587;-72
2022/04/30 08:38:03;;;;;;;3.70;1.63;;;11.90;1.00;;;13.10;30.16;100155.63;4998888;28;119257;-70
2022/04/30 08:40:34;;;;;;;4.00;1.95;;;11.70;1.00;;;12.89;29.93;100158.06;4997097;28;129673;-70
2022/04/30 08:43:08;;;;;;;5.28;2.00;;;11.70;1.00;;;13.16;30.61;100166.41;4997496;28;131426;-69
2022/04/30 08:45:39;;;;;;;4.80;2.05;;;11.80;1.00;;;12.74;30.30;100144.81;5005094;28;120136;-70
2022/04/30 08:48:09;;;;;;;3.65;1.80;;;11.70;1.00;;;13.50;29.21;100143.97;5017971;28;120887;-70
2022/04/30 08:50:39;;;;;;;2.97;1.73;;;11.60;1.00;;;14.08;28.84;100143.97;5003175;28;130050;-70
2022/04/30 08:53:08;;;;;;;5.15;1.80;;;11.80;1.00;;;14.65;28.52;100148.50;4985688;28;129759;-70
2022/04/30 08:55:38;;;;;;;4.18;1.80;;;12.10;1.00;;;15.06;27.94;100142.47;5018017;28;119651;-67
2022/04/30 08:58:06;;;;;;;17.85;7.78;;;12.60;1.00;;;15.05;27.25;100146.34;5018252;28;120172;-69
2022/04/30 09:00:41;;;;;;;5.63;2.00;;;11.90;1.00;;;15.69;27.45;100141.09;5018032;28;129912;-68
2022/04/30 09:03:14;;;;;;;3.55;1.67;;;12.60;1.00;;;15.25;26.53;100141.28;5017370;28;131095;-68
2022/04/30 09:05:43;;;;;;;3.55;1.80;;;12.50;1.00;;;15.77;26.86;100132.88;5017356;28;122210;-68
2022/04/30 09:08:11;;;;;;;9.55;1.90;;;13.00;1.00;;;15.95;26.04;100133.53;4982794;28;120545;-70
2022/04/30 09:10:42;;;;;;;6.10;2.00;;;13.10;1.00;;;16.12;26.25;100132.63;4997904;28;130141;-69
2022/04/30 09:13:13;;;;;;;3.22;1.90;;;13.10;1.00;;;15.76;25.69;100136.69;4997453;28;129475;-72
2022/04/30 09:15:44;;;;;;;4.35;1.95;;;12.70;1.00;;;15.72;26.35;100129.47;5007022;27;120432;-69
2022/04/30 09:18:14;;;;;;;2.90;1.70;;;12.60;1.00;;;15.70;26.75;100127.06;5037518;27;119520;-70
2022/04/30 09:20:45;;;;;;;3.63;1.98;;;12.80;1.00;;;15.93;25.79;100137.78;5036928;27;130544;-68
2022/04/30 09:23:25;;;;;;;3.88;2.10;;;12.80;1.00;;;16.06;25.93;100128.47;5038896;27;129936;-68
2022/04/30 09:25:58;;;;;;;5.53;2.13;;;12.70;1.00;;;16.22;26.51;100125.16;5004749;28;119276;-68
2022/04/30 09:28:28;;;;;;;5.72;2.00;;;13.10;1.00;;;16.54;26.50;100118.13;5018294;28;119773;-69
2022/04/30 09:31:08;;;;;;;4.57;1.85;;;13.70;1.00;;;16.62;25.41;100125.44;5019642;28;129575;-69
2022/04/30 09:33:37;;;;;;;5.93;2.28;;;13.40;1.00;;;16.28;26.05;100118.34;5017777;28;129748;-68
2022/04/30 09:38:55;;;;;;;6.15;2.30;;;12.80;1.00;;;15.19;27.62;100123.44;5003282;28;119357;-70
2022/04/30 09:41:28;;;;;;;5.22;2.10;;;12.70;1.00;;;15.24;27.57;100115.09;5017784;28;130556;-69
2022/04/30 09:44:06;;;;;;;7.65;2.22;;;12.30;1.00;;;15.40;27.13;100116.13;5017473;28;129735;-70
2022/04/30 09:46:36;;;;;;;3.50;1.80;;;12.30;1.00;;;15.78;25.96;100112.59;5033882;27;120755;-70
2022/04/30 09:54:41;;;;;;;4.50;1.60;;;13.40;1.00;;;16.17;25.40;100094.13;5036166;27;129957;-73
2022/04/30 09:57:15;;;;;;;6.88;1.98;;;13.50;1.00;;;16.15;25.59;100093.63;5011123;27;121054;-71
2022/04/30 09:59:45;;;;;;;2.95;1.73;;;13.30;1.00;;;16.23;25.36;100105.66;5015905;28;121381;-66
2022/04/30 10:02:16;;;;;;;3.92;1.45;;;12.90;1.00;;;16.23;25.09;100099.38;5029759;27;130074;-71
2022/04/30 10:04:46;;;;;;;2.65;1.50;;;12.80;1.00;;;15.75;25.00;100104.19;5023580;27;129344;-70
2022/04/30 10:07:20;;;;;;;4.60;1.90;;;12.40;1.00;;;15.52;25.43;100090.00;5038042;27;119891;-71
2022/04/30 10:09:59;;;;;;;4.78;1.88;;;12.50;1.00;;;15.81;25.34;100098.22;5038057;27;120108;-69
2022/04/30 10:12:37;;;;;;;4.32;2.25;;;13.00;1.00;;;16.33;25.06;100091.56;5022588;27;129887;-70
2022/04/30 10:15:16;;;;;;;4.20;1.63;;;13.50;1.00;;;16.62;24.17;100100.78;5038356;27;130978;-71
2022/04/30 10:17:48;;;;;;;9.15;2.85;;;13.30;1.00;;;16.60;24.77;100094.06;5038092;27;119395;-69
2022/04/30 10:20:29;;;;;;;6.00;2.38;;;13.30;1.00;;;16.09;25.42;100084.00;5037694;27;119200;-69
2022/04/30 10:23:00;;;;;;;4.88;1.77;;;13.10;1.00;;;15.73;25.63;100092.78;5035934;27;130682;-70
2022/04/30 10:25:36;;;;;;;5.32;1.70;;;13.20;1.00;;;15.58;25.74;100091.41;5037629;27;130484;-67
2022/04/30 10:28:17;;;;;;;;;;;12.90;1.00;;;15.52;25.87;100082.63;5038028;27;120594;-68
2022/04/30 10:30:46;;;;;;;3.00;1.70;;;12.90;1.00;;;15.89;25.38;100090.28;5038031;27;119406;-71
2022/04/30 10:33:16;;;;;;;3.10;1.42;;;13.00;1.00;;;16.09;25.17;100078.53;5025897;27;128955;-71
2022/04/30 10:35:44;;;;;;;3.60;1.90;;;13.10;1.00;;;16.21;25.80;100079.75;5033094;27;130120;-70
2022/04/30 10:38:17;;;;;;;4.20;1.50;;;13.30;1.00;;;16.45;24.92;100079.84;4995287;28;119208;-70
2022/04/30 10:40:50;;;;;;;5.55;1.77;;;13.40;1.00;;;16.58;25.68;100077.13;5007749;27;118299;-71
2022/04/30 10:43:28;;;;;;;4.82;1.55;;;13.70;1.00;;;15.81;26.14;100072.78;5035164;27;130223;-71
2022/04/30 10:45:56;;;;;;;2.55;1.50;;;13.70;1.00;;;16.84;25.34;100079.59;5033269;27;130317;-70
2022/04/30 10:48:26;;;;;;;5.15;1.90;;;14.00;1.00;;;16.92;24.17;100070.50;5019495;28;122007;-69
2022/04/30 10:51:06;;;;;;;2.63;1.42;;;13.40;1.00;;;16.95;24.01;100069.03;5002690;28;121845;-69
2022/04/30 10:53:40;;;;;;;2.75;1.35;;;13.80;1.00;;;17.27;24.12;100064.63;5020447;28;130214;-71
2022/04/30 10:56:09;;;;;;;6.18;2.00;;;13.90;1.00;;;18.19;24.32;100054.06;5002245;28;129247;-72
2022/04/30 10:58:41;;;;;;;5.80;1.80;;;14.90;1.00;;;18.90;23.16;100053.59;5020727;28;119478;-72
2022/04/30 11:01:14;;;;;;;3.35;1.70;;;15.50;1.00;;;18.87;23.19;100055.13;5021137;28;119774;-72
2022/04/30 11:03:44;;;;;;;4.80;1.95;;;15.20;1.00;;;17.82;24.61;100061.59;5005612;28;129971;-70
2022/04/30 11:06:13;;;;;;;4.32;1.90;;;14.80;1.00;;;17.64;25.17;100053.63;5020770;28;129679;-70
2022/04/30 11:08:42;;;;;;;3.38;1.85;;;15.00;1.00;;;18.37;23.38;100051.00;5022574;28;121507;-70